Terminal Aerodrome Forecast
Issued by NWS Mt. Holly, NJ

Home | Current Version | Previous Version | Text Only | Print | Product List | Glossary On
Versions: 1 2 3 4 5 6 7 8 9 10 11 12 13 14 15 16 17 18 19 20 21 22 23 24 25 26 27 28 29 30 31 32 33 34 35 36 37
000
FTAK31 PANC 311140
TAFABE
TAF
PABE 311140Z 3112/0112 03016G24KT P6SM FEW006 BKN200
      TEMPO 3112/3116 OVC006
     FM312100 03020G28KT P6SM SCT030 BKN060
     FM010500 03018G26KT 6SM -SHSN BKN015 OVC025=

USA.gov is the U.S. government's official web portal to all federal, state and local government web resources and services.